createdAt,value
2018-06-16T01:17:35.327Z,668.77
2018-06-16T01:20:17.755Z,694.90
2018-06-16T01:23:02.304Z,488.57
2018-06-16T01:25:44.203Z,586.27
2018-06-16T01:28:28.238Z,702.73
2018-06-16T01:31:13.003Z,818.77
2018-06-16T01:34:00.178Z,845.83
2018-06-16T01:36:43.038Z,769.20
2018-06-16T01:39:26.250Z,871.40
2018-06-16T01:42:09.302Z,842.63
2018-06-16T01:44:50.518Z,866.93
2018-06-16T01:47:32.702Z,865.70
2018-06-16T01:50:15.863Z,860.57
2018-06-16T01:52:57.884Z,831.13
2018-06-16T01:55:38.285Z,820.20
2018-06-16T01:58:19.638Z,824.10
2018-06-16T02:01:04.047Z,777.83
2018-06-16T02:03:53.475Z,775.63
2018-06-16T02:06:37.201Z,787.93
2018-06-16T02:09:17.925Z,758.73
2018-06-16T02:12:00.782Z,750.00
2018-06-16T02:14:43.601Z,765.63
2018-06-16T02:17:28.760Z,746.30
2018-06-16T02:20:08.523Z,735.57
2018-06-16T02:22:48.938Z,581.07
2018-06-16T02:25:34.799Z,764.33
2018-06-16T02:28:19.179Z,794.83
2018-06-16T02:31:02.698Z,723.80
2018-06-16T02:33:44.182Z,719.27
2018-06-16T02:36:27.117Z,662.87
2018-06-16T02:39:11.025Z,707.83
2018-06-16T02:41:57.682Z,698.83
2018-06-16T02:44:38.738Z,620.33
2018-06-16T02:47:19.060Z,519.37
2018-06-16T02:50:00.558Z,489.27
2018-06-16T02:52:49.203Z,371.00
2018-06-16T02:55:31.505Z,295.33
2018-06-16T02:58:11.839Z,370.07
2018-06-16T03:00:56.700Z,273.53
2018-06-16T03:03:45.220Z,396.83
2018-06-16T03:06:28.177Z,569.60
2018-06-16T03:09:11.498Z,551.00
2018-06-16T03:11:52.041Z,615.90
2018-06-16T03:14:35.143Z,588.20
2018-06-16T03:17:18.484Z,609.50
2018-06-16T03:20:03.316Z,530.90
2018-06-16T03:22:43.799Z,445.47
2018-06-16T03:25:26.629Z,454.53
2018-06-16T03:28:11.805Z,397.97
2018-06-16T03:30:56.659Z,278.50
2018-06-16T03:33:40.977Z,248.53
2018-06-16T03:36:25.399Z,212.07
2018-06-16T03:39:09.646Z,222.93
2018-06-16T03:41:51.701Z,252.27
2018-06-16T03:44:32.581Z,239.87
2018-06-16T03:47:13.739Z,238.97
2018-06-16T03:50:02.878Z,215.67
2018-06-16T03:52:45.942Z,198.07
2018-06-16T03:55:29.099Z,310.10
2018-06-16T03:58:10.441Z,213.30
2018-06-16T04:00:53.864Z,190.17
2018-06-16T04:03:36.303Z,211.77
2018-06-16T04:06:20.719Z,225.77
2018-06-16T04:09:04.900Z,250.13
2018-06-16T04:11:47.747Z,332.37
2018-06-16T04:14:31.202Z,324.77
2018-06-16T04:17:18.263Z,394.40
2018-06-16T04:20:01.377Z,395.20
2018-06-16T04:22:45.225Z,502.17
2018-06-16T04:25:24.604Z,574.63
2018-06-16T04:28:03.465Z,587.53
2018-06-16T04:30:44.138Z,638.93
2018-06-16T04:33:27.000Z,615.33
2018-06-16T04:36:10.009Z,698.27
2018-06-16T04:38:53.505Z,654.57
2018-06-16T04:41:34.135Z,758.77
2018-06-16T04:44:16.365Z,888.57
2018-06-16T04:46:59.358Z,939.13
2018-06-16T04:49:39.699Z,964.43
2018-06-16T04:52:20.004Z,972.53
2018-06-16T04:55:01.759Z,873.73
2018-06-16T04:57:43.657Z,948.00
2018-06-16T05:00:24.607Z,939.03
2018-06-16T05:03:05.401Z,924.63
2018-06-16T05:05:48.135Z,961.30
2018-06-16T05:08:33.358Z,963.80
2018-06-16T05:11:14.059Z,978.83
2018-06-16T05:13:55.959Z,953.57
2018-06-16T05:16:36.018Z,990.00
2018-06-16T05:19:15.798Z,968.10
2018-06-16T05:21:57.335Z,999.90
2018-06-16T05:24:38.558Z,978.30
2018-06-16T05:27:19.000Z,804.43
2018-06-16T05:29:58.602Z,670.87
2018-06-16T05:32:44.465Z,325.77
2018-06-16T05:35:24.503Z,350.73
2018-06-16T05:38:06.940Z,408.37
2018-06-16T05:40:50.002Z,448.90
2018-06-16T05:43:29.919Z,638.17
2018-06-16T05:46:07.917Z,629.97
2018-06-16T05:48:51.064Z,691.17
2018-06-16T05:51:32.405Z,729.07
2018-06-16T05:54:12.463Z,746.23
2018-06-16T05:56:52.556Z,728.27
2018-06-16T05:59:30.081Z,721.20
2018-06-16T06:02:11.155Z,737.30
2018-06-16T06:04:52.357Z,595.53
2018-06-16T06:07:30.640Z,566.50
2018-06-16T06:10:09.871Z,459.00
2018-06-16T06:12:48.720Z,494.47
2018-06-16T06:15:30.558Z,553.33
2018-06-16T06:18:10.187Z,456.10
2018-06-16T06:20:50.156Z,786.87
2018-06-16T06:23:32.715Z,663.03
2018-06-16T06:26:12.285Z,92.50
2018-06-16T06:28:51.218Z,77.73
2018-06-16T06:31:31.482Z,251.00
2018-06-16T06:34:11.082Z,691.80
2018-06-16T06:36:52.639Z,566.13
2018-06-16T06:39:32.937Z,615.73
2018-06-16T06:42:14.544Z,416.47
2018-06-16T06:44:51.797Z,487.17
2018-06-16T06:47:33.177Z,684.33
2018-06-16T06:50:16.903Z,999.90
2018-06-16T06:52:54.799Z,386.10
2018-06-16T06:55:36.703Z,999.90
2018-06-16T06:58:16.221Z,999.90
2018-06-16T07:00:55.006Z,999.90
2018-06-16T07:03:35.337Z,999.90
2018-06-16T07:06:15.720Z,999.90
2018-06-16T07:08:54.300Z,885.03
2018-06-16T07:11:35.119Z,50.37
2018-06-16T07:14:14.985Z,78.47
2018-06-16T07:16:56.281Z,82.00
2018-06-16T07:19:36.597Z,49.00
2018-06-16T07:22:16.459Z,64.33
2018-06-16T07:24:55.662Z,47.60
2018-06-16T07:27:35.864Z,78.78
2018-06-16T07:30:13.560Z,52.13
2018-06-16T07:32:53.580Z,72.10
2018-06-16T07:35:34.541Z,53.63
2018-06-16T07:38:13.503Z,47.85
2018-06-16T07:40:53.520Z,45.50
2018-06-16T07:43:33.937Z,124.15
2018-06-16T07:46:15.555Z,141.20
2018-06-16T07:48:58.365Z,119.17
2018-06-16T07:51:36.744Z,80.72
2018-06-16T07:54:17.723Z,81.80
2018-06-16T07:57:00.081Z,77.37
2018-06-16T07:59:42.342Z,83.50
2018-06-16T08:02:21.264Z,71.45
2018-06-16T08:05:00.261Z,65.22
2018-06-16T08:07:50.666Z,62.80
2018-06-16T08:10:39.482Z,61.30
2018-06-16T08:13:22.559Z,68.15
2018-06-16T08:16:03.124Z,70.17
2018-06-16T08:18:45.009Z,70.80
2018-06-16T08:21:23.719Z,79.87
2018-06-16T08:24:04.458Z,83.03
2018-06-16T08:26:45.260Z,93.52
2018-06-16T08:29:26.442Z,96.63
2018-06-16T08:32:06.769Z,87.37
2018-06-16T08:34:45.622Z,91.08
2018-06-16T08:37:24.502Z,92.08
2018-06-16T08:40:03.263Z,94.45
2018-06-16T08:42:41.223Z,99.00
2018-06-16T08:45:20.839Z,113.00
2018-06-16T08:48:03.803Z,116.85
2018-06-16T08:50:42.583Z,142.82
2018-06-16T08:53:21.306Z,141.25
2018-06-16T08:55:58.942Z,124.55
2018-06-16T08:58:38.525Z,122.15
2018-06-16T09:01:17.719Z,68.07
2018-06-16T09:03:55.724Z,60.45
2018-06-16T09:06:32.159Z,60.70
2018-06-16T09:09:14.101Z,42.98
2018-06-16T09:11:53.163Z,36.50
2018-06-16T09:14:33.233Z,44.98
2018-06-16T09:17:12.401Z,85.50
2018-06-16T09:19:51.497Z,106.05
2018-06-16T09:22:29.924Z,126.07
2018-06-16T09:25:09.229Z,121.95
2018-06-16T09:27:49.265Z,110.32
2018-06-16T09:30:29.564Z,94.77
2018-06-16T09:33:19.441Z,54.95
2018-06-16T09:36:06.532Z,97.67
2018-06-16T09:38:45.540Z,47.45
2018-06-16T09:41:29.161Z,51.63
2018-06-16T09:44:10.220Z,190.22
2018-06-16T09:46:50.538Z,46.10
2018-06-16T09:49:33.964Z,67.37
2018-06-16T09:52:13.602Z,133.53
2018-06-16T09:54:55.355Z,77.27
2018-06-16T09:57:36.758Z,52.57
2018-06-16T10:00:21.418Z,122.17
2018-06-16T10:03:04.960Z,79.27
2018-06-16T10:05:44.982Z,140.50
2018-06-16T10:08:24.883Z,163.75
2018-06-16T10:11:04.639Z,143.17
2018-06-16T10:13:49.378Z,168.93
2018-06-16T10:16:32.260Z,149.27
2018-06-16T10:19:10.685Z,123.53
2018-06-16T10:21:50.355Z,103.32
2018-06-16T10:24:40.879Z,50.70
2018-06-16T10:27:22.782Z,77.30
2018-06-16T10:30:02.835Z,46.60
2018-06-16T10:32:47.081Z,40.75
2018-06-16T10:35:34.724Z,36.33
2018-06-16T10:38:15.647Z,32.90
2018-06-16T10:40:54.962Z,34.05
2018-06-16T10:43:36.247Z,32.65
2018-06-16T10:46:26.595Z,31.48
2018-06-16T10:49:05.784Z,31.40
2018-06-16T10:51:48.544Z,31.48
2018-06-16T10:54:26.541Z,31.07
2018-06-16T10:57:05.237Z,34.63
2018-06-16T10:59:51.299Z,41.15
2018-06-16T11:02:32.981Z,50.63
2018-06-16T11:05:12.256Z,61.90
2018-06-16T11:07:55.998Z,68.15
2018-06-16T11:10:35.343Z,56.08
2018-06-16T11:13:14.260Z,53.25
2018-06-16T11:16:00.622Z,61.50
2018-06-16T11:18:41.958Z,66.65
2018-06-16T11:21:19.443Z,58.78
2018-06-16T11:24:04.962Z,75.85
2018-06-16T11:26:44.522Z,75.32
2018-06-16T11:29:23.860Z,52.10
2018-06-16T11:32:12.301Z,90.05
2018-06-16T11:34:54.840Z,62.38
2018-06-16T11:37:35.239Z,67.75
2018-06-16T11:40:22.159Z,63.42
2018-06-16T11:43:06.125Z,96.85
2018-06-16T11:45:44.659Z,55.50
2018-06-16T11:48:25.456Z,56.28
2018-06-16T11:51:05.440Z,59.65
2018-06-16T11:53:44.926Z,76.62
2018-06-16T11:56:24.598Z,69.67
2018-06-16T12:19:44.985Z,83.62
2018-06-16T12:22:27.376Z,55.12
2018-06-16T12:25:09.484Z,50.95
2018-06-16T12:27:47.687Z,58.40
2018-06-16T12:30:25.858Z,48.80
2018-06-16T12:33:03.957Z,47.15
2018-06-16T12:35:42.600Z,45.95
2018-06-16T12:38:22.635Z,40.63
2018-06-16T12:41:01.982Z,46.37
2018-06-16T12:43:43.217Z,41.10
2018-06-16T12:46:25.521Z,42.15
2018-06-16T12:49:05.894Z,31.50
2018-06-16T12:51:47.543Z,34.73
2018-06-16T12:54:27.105Z,30.80
2018-06-16T12:57:13.338Z,31.77
2018-06-16T12:59:58.180Z,33.15
2018-06-16T13:02:37.103Z,41.05
2018-06-16T13:05:18.520Z,39.90
2018-06-16T13:08:03.460Z,44.35
2018-06-16T13:10:45.050Z,44.30
2018-06-16T13:13:23.640Z,45.48
2018-06-16T13:16:07.402Z,43.28
2018-06-16T13:18:46.198Z,43.45
2018-06-16T13:21:27.738Z,44.27
2018-06-16T13:24:07.035Z,46.35
2018-06-16T13:26:46.340Z,44.63
2018-06-16T13:29:27.235Z,41.75
2018-06-16T13:32:07.022Z,37.85
2018-06-16T13:34:46.997Z,32.93
2018-06-16T13:37:24.980Z,33.38
2018-06-16T13:40:07.244Z,43.68
2018-06-16T13:42:52.981Z,45.65
2018-06-16T13:45:31.622Z,48.65
2018-06-16T13:48:14.198Z,44.20
2018-06-16T13:50:59.220Z,62.65
2018-06-16T13:53:37.780Z,55.75
2018-06-16T13:56:15.795Z,41.30
2018-06-16T13:58:55.368Z,40.80
2018-06-16T14:01:37.002Z,47.08
2018-06-16T14:04:15.179Z,38.78
2018-06-16T14:06:53.559Z,40.83
2018-06-16T14:09:33.761Z,39.88
2018-06-16T14:53:42.858Z,32.33
2018-06-16T14:56:22.478Z,34.85
2018-06-16T16:22:10.858Z,39.73
2018-06-16T16:24:52.662Z,35.88
2018-06-16T16:27:35.209Z,36.33
2018-06-16T16:30:15.704Z,43.45
2018-06-16T16:32:56.838Z,42.35
2018-06-16T16:35:38.146Z,46.75
2018-06-16T16:38:16.763Z,58.25
2018-06-16T16:41:00.058Z,97.37
2018-06-16T16:43:43.561Z,85.17
2018-06-16T16:46:32.642Z,84.35
2018-06-16T16:49:12.377Z,143.78
2018-06-16T16:51:57.182Z,73.00
2018-06-16T16:54:39.168Z,85.55
2018-06-16T16:57:23.779Z,154.50
2018-06-16T17:00:05.421Z,173.22
2018-06-16T17:02:45.535Z,115.70
2018-06-16T17:05:28.045Z,60.45
2018-06-16T17:08:10.978Z,69.42
2018-06-16T17:10:53.581Z,135.95
2018-06-16T17:13:31.601Z,78.47
2018-06-16T17:16:16.504Z,78.78
2018-06-16T17:18:57.341Z,86.22
2018-06-16T17:21:37.079Z,115.72
2018-06-16T17:24:19.781Z,138.43
2018-06-16T17:27:06.240Z,119.28
2018-06-16T17:29:46.642Z,135.57
2018-06-16T17:32:30.945Z,115.60
2018-06-16T17:35:12.544Z,136.90
2018-06-16T17:38:05.147Z,142.32
2018-06-16T17:40:44.538Z,105.55
2018-06-16T17:43:24.027Z,132.63
2018-06-16T17:46:08.624Z,156.43
2018-06-16T17:48:53.762Z,79.20
2018-06-16T17:57:38.477Z,57.53
2018-06-16T18:00:21.100Z,43.67
2018-06-16T18:03:05.644Z,45.40
2018-06-16T18:05:46.920Z,80.17
2018-06-16T18:08:28.399Z,322.80
2018-06-16T18:11:23.123Z,582.53
2018-06-16T18:14:14.843Z,722.30
2018-06-16T18:16:57.782Z,771.93
2018-06-16T18:19:37.006Z,323.97
2018-06-16T18:22:16.204Z,591.07
2018-06-16T18:25:08.700Z,500.47
2018-06-16T18:27:53.344Z,409.27
2018-06-16T18:30:34.325Z,529.67
2018-06-16T18:33:15.738Z,543.83
2018-06-16T18:35:53.805Z,517.13
2018-06-16T18:38:31.817Z,446.33
2018-06-16T18:41:14.462Z,409.53
2018-06-16T18:43:56.403Z,343.03
2018-06-16T18:46:34.739Z,252.17
2018-06-16T18:49:25.396Z,94.97
2018-06-16T18:52:08.322Z,100.63
2018-06-16T18:54:51.888Z,109.87
2018-06-16T18:57:35.980Z,121.53
2018-06-16T19:00:22.260Z,140.03
2018-06-16T19:03:14.360Z,147.63
2018-06-16T19:05:58.421Z,91.00
2018-06-16T19:08:44.121Z,63.23
2018-06-16T19:56:08.659Z,102.43
2018-06-16T21:19:34.361Z,999.90
2018-06-16T21:22:15.661Z,999.90
2018-06-16T21:24:58.701Z,999.90
2018-06-16T21:27:40.341Z,999.90
2018-06-16T21:30:24.844Z,999.90
2018-06-16T21:33:09.081Z,999.90
2018-06-16T21:35:50.424Z,999.90
2018-06-16T21:38:34.940Z,999.90
2018-06-16T21:41:16.358Z,999.90
2018-06-16T21:43:58.557Z,999.90
2018-06-16T21:46:41.419Z,999.90
2018-06-16T21:49:20.624Z,999.90
2018-06-16T21:52:00.822Z,999.90
2018-06-16T21:54:40.380Z,999.90
2018-06-16T21:57:21.900Z,999.90
2018-06-16T22:00:03.741Z,999.90
2018-06-16T22:02:42.905Z,999.90
2018-06-16T22:05:26.296Z,999.90
2018-06-16T22:08:10.816Z,999.90
2018-06-16T22:10:53.583Z,999.90
2018-06-16T22:32:35.733Z,999.90
2018-06-16T22:35:16.534Z,999.90
2018-06-16T22:37:57.830Z,973.53
2018-06-16T22:40:37.795Z,999.90
2018-06-16T22:43:17.895Z,999.80
2018-06-16T23:57:41.556Z,643.23
